Time;durP1;ratioP1;P1;durP2;ratioP2;P2;SDS_P1;SDS_P2;PMS_P1;PMS_P2;Temp;Humidity;BMP_temperature;BMP_pressure;BME280_temperature;BME280_humidity;BME280_pressure;Samples;Min_cycle;Max_cycle;Signal;HPM_P1;HPM_P2
2022/04/23 00:01:10;;;;;;;16.73;13.10;;;12.00;57.50;;;12.49;48.26;96236.59;5043716;28;20045;-46
2022/04/23 00:03:37;;;;;;;15.55;13.68;;;12.00;57.60;;;12.46;48.49;96235.13;5043770;28;20045;-43
2022/04/23 00:06:05;;;;;;;17.27;14.68;;;12.00;57.50;;;12.46;48.47;96231.66;5043409;28;20053;-46
2022/04/23 00:08:33;;;;;;;18.77;13.50;;;11.90;57.60;;;12.45;48.46;96236.16;5043367;28;20054;-48
2022/04/23 00:11:01;;;;;;;16.45;13.38;;;12.00;57.60;;;12.44;48.96;96229.19;5043833;28;20057;-44
2022/04/23 00:13:29;;;;;;;15.73;13.75;;;12.00;57.60;;;12.43;48.74;96227.56;5043561;28;20279;-45
2022/04/23 00:15:57;;;;;;;16.40;13.00;;;12.00;57.80;;;12.40;48.70;96226.09;5043879;28;20060;-45
2022/04/23 00:18:24;;;;;;;16.08;13.35;;;11.90;57.90;;;12.39;48.66;96229.81;5043955;28;20046;-44
2022/04/23 00:20:52;;;;;;;17.95;13.40;;;11.90;57.90;;;12.38;48.74;96230.81;5043284;28;20049;-45
2022/04/23 00:23:20;;;;;;;18.65;14.77;;;11.90;58.00;;;12.33;49.03;96227.97;5043461;28;20220;-46
2022/04/23 00:25:51;;;;;;;19.13;14.00;;;11.80;58.20;;;12.30;49.05;96231.03;5043359;28;20068;-45
2022/04/23 00:28:20;;;;;;;18.95;15.15;;;11.70;58.30;;;12.28;49.03;96233.09;5043347;28;20057;-44
2022/04/23 00:30:48;;;;;;;18.45;14.70;;;11.70;58.50;;;12.25;49.45;96238.03;5043473;28;20053;-46
2022/04/23 00:33:15;;;;;;;17.45;14.23;;;11.70;58.60;;;12.21;49.02;96235.78;5043392;28;20259;-45
2022/04/23 00:35:44;;;;;;;18.13;14.43;;;11.70;58.60;;;12.16;49.19;96237.44;5043014;28;20225;-46
2022/04/23 00:38:12;;;;;;;16.05;13.55;;;11.70;58.90;;;12.11;49.54;96235.34;5042009;28;20045;-43
2022/04/23 00:40:40;;;;;;;21.33;14.60;;;11.60;59.00;;;12.09;49.61;96239.25;5043185;28;20055;-44
2022/04/23 00:43:12;;;;;;;16.27;13.20;;;11.50;59.30;;;12.06;49.53;96245.84;5043753;28;20244;-46
2022/04/23 00:45:41;;;;;;;15.00;12.87;;;11.50;59.40;;;12.00;49.82;96241.31;5042736;28;20053;-45
2022/04/23 00:48:08;;;;;;;16.13;13.75;;;11.50;59.50;;;11.97;49.99;96247.06;5043103;28;20059;-46
2022/04/23 00:50:36;;;;;;;17.70;15.45;;;11.40;59.50;;;11.93;49.72;96246.63;5037658;28;142990;-47
2022/04/23 00:53:05;;;;;;;16.40;13.30;;;11.40;59.70;;;11.92;49.67;96244.16;5043494;28;20049;-46
2022/04/23 00:55:33;;;;;;;16.38;14.20;;;11.40;59.50;;;11.92;50.21;96244.16;5044542;28;20275;-46
2022/04/23 00:58:02;;;;;;;16.13;13.50;;;11.40;59.60;;;11.91;50.14;96238.03;5043921;28;20419;-45
2022/04/23 01:00:30;;;;;;;17.80;13.75;;;11.40;59.60;;;11.90;50.01;96236.38;5043780;28;20051;-45
2022/04/23 01:02:57;;;;;;;16.80;13.18;;;11.40;60.00;;;11.88;50.62;96243.72;5044545;28;20238;-46
2022/04/23 01:05:26;;;;;;;16.50;13.57;;;11.40;60.10;;;11.87;50.51;96242.09;5043414;28;20045;-44
2022/04/23 01:07:55;;;;;;;19.13;14.95;;;11.50;60.10;;;11.86;50.67;96237.78;5043609;28;20049;-48
2022/04/23 01:10:23;;;;;;;17.60;12.50;;;11.40;60.20;;;11.89;50.56;96232.06;5043684;28;20045;-44
2022/04/23 01:12:51;;;;;;;16.33;13.70;;;11.50;60.30;;;11.88;50.92;96230.38;5043792;28;20107;-46
2022/04/23 01:15:21;;;;;;;18.00;13.47;;;11.50;60.30;;;11.88;50.50;96234.91;5043159;28;20079;-48
2022/04/23 01:17:49;;;;;;;18.77;13.57;;;11.40;60.40;;;11.82;50.50;96228.53;5043072;28;20045;-44
2022/04/23 01:20:17;;;;;;;15.75;13.88;;;11.30;60.70;;;11.80;51.07;96227.91;5042689;28;20255;-46
2022/04/23 01:22:45;;;;;;;17.85;14.05;;;11.20;60.90;;;11.75;50.97;96220.53;5043333;28;20075;-46
2022/04/23 01:25:14;;;;;;;16.80;12.82;;;11.20;61.20;;;11.74;50.83;96223.41;5043494;28;20045;-46
2022/04/23 01:27:47;;;;;;;19.75;13.98;;;11.20;61.60;;;11.69;51.46;96217.84;5043300;28;20264;-50
2022/04/23 01:30:16;;;;;;;16.15;13.27;;;11.10;61.90;;;11.67;51.34;96219.91;5043229;28;20053;-44
2022/04/23 01:32:44;;;;;;;15.25;13.27;;;11.10;61.70;;;11.64;51.12;96218.47;5043753;28;20059;-47
2022/04/23 01:35:12;;;;;;;16.97;13.40;;;11.10;61.70;;;11.63;51.64;96217.66;5043600;28;20343;-49
2022/04/23 01:37:40;;;;;;;17.25;13.73;;;11.10;62.00;;;11.60;51.34;96215.38;5043073;28;20061;-49
2022/04/23 01:40:08;;;;;;;17.10;13.97;;;11.10;62.00;;;11.57;51.75;96217.63;5043191;28;20253;-44
2022/04/23 01:42:36;;;;;;;15.20;12.80;;;11.00;62.40;;;11.51;51.66;96221.91;5042941;28;20045;-46
2022/04/23 01:45:05;;;;;;;17.93;13.10;;;10.90;62.60;;;11.49;51.50;96213.31;5043094;28;20051;-44
2022/04/23 01:47:32;;;;;;;19.53;13.87;;;10.90;62.60;;;11.44;51.64;96218.44;5041648;28;20240;-45
2022/04/23 01:50:00;;;;;;;16.67;13.47;;;10.90;62.80;;;11.42;51.75;96215.16;5042813;28;20056;-46
2022/04/23 01:52:28;;;;;;;17.23;14.13;;;10.80;62.90;;;11.39;52.06;96218.22;5042903;28;20045;-44
2022/04/23 01:54:56;;;;;;;15.17;11.90;;;10.80;63.00;;;11.35;51.97;96219.63;5042614;28;20236;-44
2022/04/23 01:57:24;;;;;;;17.93;13.80;;;10.80;63.40;;;11.31;52.36;96221.88;5042469;28;20247;-44
2022/04/23 01:59:52;;;;;;;15.53;12.40;;;10.70;63.60;;;11.28;52.09;96221.44;5043300;28;20160;-44
2022/04/23 02:02:19;;;;;;;17.23;12.57;;;10.70;63.90;;;11.24;52.53;96223.69;5042799;28;20061;-45
2022/04/23 02:04:48;;;;;;;14.73;11.13;;;10.70;64.30;;;11.24;52.47;96218.38;5042575;28;20042;-48
2022/04/23 02:07:15;;;;;;;14.07;10.93;;;10.70;64.40;;;11.23;52.60;96230.06;5042260;28;20041;-47
2022/04/23 02:09:43;;;;;;;15.33;10.97;;;10.70;64.60;;;11.22;53.01;96234.56;5042621;28;20049;-45
2022/04/23 02:12:11;;;;;;;12.53;10.50;;;10.70;64.40;;;11.23;53.29;96235.38;5042628;28;20242;-47
2022/04/23 02:14:39;;;;;;;14.50;11.77;;;10.80;64.40;;;11.20;53.28;96231.25;5042947;28;20053;-45
2022/04/23 02:17:09;;;;;;;12.83;10.87;;;10.80;64.40;;;11.18;53.61;96222.66;5042665;28;20053;-45
2022/04/23 02:19:37;;;;;;;12.87;11.10;;;10.80;65.10;;;11.21;53.93;96224.13;5042257;28;20040;-46
2022/04/23 02:22:05;;;;;;;14.73;11.67;;;10.80;65.40;;;11.16;54.31;96218.53;5042980;28;20067;-45
2022/04/23 02:24:33;;;;;;;13.33;10.43;;;10.80;65.10;;;11.18;54.18;96219.16;5041069;28;20053;-46
2022/04/23 02:27:02;;;;;;;12.90;10.07;;;10.90;65.20;;;11.22;54.11;96215.09;5041804;28;20045;-47
2022/04/23 02:29:29;;;;;;;13.27;10.63;;;10.90;65.30;;;11.25;54.05;96227.19;5042304;28;20059;-46
2022/04/23 02:31:57;;;;;;;12.37;10.03;;;10.80;65.20;;;11.19;53.88;96223.50;5042183;28;20067;-46
2022/04/23 02:34:25;;;;;;;14.50;10.57;;;10.70;65.80;;;11.14;53.77;96224.06;5042358;28;20055;-44
2022/04/23 02:36:53;;;;;;;14.87;10.67;;;10.60;66.00;;;11.12;54.12;96233.28;5041855;28;20050;-46
2022/04/23 02:39:20;;;;;;;13.87;11.07;;;10.60;66.20;;;11.08;54.11;96222.22;5042299;28;20248;-47
2022/04/23 02:41:48;;;;;;;13.80;10.90;;;10.60;66.10;;;11.06;53.86;96224.25;5042579;28;20076;-46
2022/04/23 02:44:17;;;;;;;16.37;10.70;;;10.50;66.20;;;11.02;54.05;96223.00;5042213;28;20370;-44
2022/04/23 02:46:45;;;;;;;12.50;10.47;;;10.40;66.30;;;10.97;53.93;96223.63;5040606;28;20041;-48
2022/04/23 02:49:13;;;;;;;13.70;10.63;;;10.40;66.60;;;10.94;54.23;96217.84;5043071;28;20056;-44
2022/04/23 02:51:42;;;;;;;12.57;9.93;;;10.30;66.70;;;10.90;54.01;96225.41;5042115;28;20278;-45
2022/04/23 02:54:12;;;;;;;16.37;10.50;;;10.30;67.10;;;10.87;54.53;96225.81;5042194;28;20055;-45
2022/04/23 02:56:40;;;;;;;13.43;9.87;;;10.30;67.00;;;10.84;54.41;96221.69;5041453;28;20049;-45
2022/04/23 02:59:08;;;;;;;12.43;10.97;;;10.30;67.00;;;10.82;54.28;96229.06;5042498;28;20056;-47
2022/04/23 03:01:36;;;;;;;12.23;10.90;;;10.30;67.20;;;10.82;54.30;96230.91;5042044;28;20366;-54
2022/04/23 03:04:05;;;;;;;12.90;10.33;;;10.30;67.10;;;10.81;54.49;96230.06;5041748;28;20369;-52
2022/04/23 03:06:33;;;;;;;12.87;11.10;;;10.30;67.30;;;10.80;54.51;96228.44;5040659;28;20075;-54
2022/04/23 03:09:03;;;;;;;14.77;10.27;;;10.30;67.20;;;10.79;54.88;96229.44;5042044;28;20053;-51
2022/04/23 03:11:31;;;;;;;13.07;10.83;;;10.30;67.40;;;10.76;54.57;96226.34;5041919;28;20064;-53
2022/04/23 03:13:59;;;;;;;13.97;10.27;;;10.20;67.70;;;10.74;54.63;96228.38;5041839;28;20374;-51
2022/04/23 03:16:27;;;;;;;14.70;10.90;;;10.20;67.80;;;10.70;54.69;96237.78;5041775;28;20057;-54
2022/04/23 03:18:59;;;;;;;13.43;10.87;;;10.20;67.90;;;10.66;55.15;96242.69;5042234;28;20046;-51
2022/04/23 03:21:27;;;;;;;12.53;9.87;;;10.20;68.20;;;10.66;55.21;96237.34;5041958;28;20061;-50
2022/04/23 03:23:55;;;;;;;14.03;10.80;;;10.10;68.60;;;10.62;55.10;96241.44;5041904;28;20060;-54
2022/04/23 03:26:23;;;;;;;12.17;10.33;;;10.00;68.60;;;10.62;55.25;96238.78;5041188;28;20339;-54
2022/04/23 03:28:50;;;;;;;11.73;9.83;;;10.10;68.90;;;10.59;55.21;96242.66;5041769;28;20053;-54
2022/04/23 03:31:18;;;;;;;11.47;9.43;;;10.10;69.00;;;10.60;55.62;96236.31;5041716;28;20056;-53
2022/04/23 03:33:46;;;;;;;13.70;10.80;;;10.10;69.10;;;10.57;55.32;96230.56;5042059;28;20057;-51
2022/04/23 03:36:14;;;;;;;12.70;9.70;;;10.10;69.00;;;10.56;55.65;96229.72;5041640;28;20060;-51
2022/04/23 03:38:42;;;;;;;14.87;10.30;;;10.10;69.20;;;10.52;55.70;96228.47;5041673;28;20041;-51
2022/04/23 03:41:10;;;;;;;13.67;10.70;;;10.00;69.30;;;10.53;55.90;96227.47;5042225;28;20053;-55
2022/04/23 03:43:38;;;;;;;12.93;10.20;;;10.00;69.40;;;10.52;56.01;96227.66;5042189;28;20051;-53
2022/04/23 03:46:06;;;;;;;12.93;10.53;;;10.00;69.30;;;10.52;55.63;96231.13;5044823;28;20243;-52
2022/04/23 03:48:34;;;;;;;13.20;10.03;;;10.10;69.40;;;10.49;55.70;96226.22;5044736;28;20378;-53
2022/04/23 03:51:02;;;;;;;12.47;10.10;;;10.00;69.10;;;10.47;55.88;96222.09;5044958;28;20041;-51
2022/04/23 03:53:30;;;;;;;12.27;10.10;;;9.90;69.20;;;10.42;55.70;96217.38;5045374;28;20046;-52
2022/04/23 03:55:57;;;;;;;13.87;10.47;;;9.90;69.50;;;10.37;55.89;96215.31;5044960;28;20061;-53
2022/04/23 03:58:28;;;;;;;15.07;10.63;;;9.80;69.70;;;10.33;55.93;96223.84;5044711;28;20137;-54
2022/04/23 04:00:56;;;;;;;15.30;11.00;;;9.70;70.00;;;10.30;55.91;96224.22;5044942;28;20365;-54
2022/04/23 04:03:24;;;;;;;13.47;10.33;;;9.70;70.40;;;10.23;56.00;96218.84;5044997;28;20046;-52
2022/04/23 04:05:52;;;;;;;13.47;10.47;;;9.60;70.50;;;10.20;55.98;96222.72;5043691;28;20337;-55
2022/04/23 04:08:20;;;;;;;14.07;10.30;;;9.60;70.40;;;10.19;56.19;96217.59;5045034;28;20042;-53
2022/04/23 04:10:48;;;;;;;13.27;10.33;;;9.60;70.40;;;10.17;56.10;96225.75;5045384;28;20053;-51
2022/04/23 04:13:16;;;;;;;16.13;11.37;;;9.60;70.30;;;10.15;55.98;96219.81;5044825;28;20057;-54
2022/04/23 04:15:44;;;;;;;13.40;10.40;;;9.60;70.40;;;10.13;56.12;96218.38;5044311;28;20053;-51
2022/04/23 04:18:13;;;;;;;13.93;10.07;;;9.60;70.10;;;10.10;56.09;96219.59;5044028;28;20058;-54
2022/04/23 04:20:41;;;;;;;13.20;10.00;;;9.50;70.30;;;10.07;56.01;96219.13;5044511;28;20041;-49
2022/04/23 04:23:09;;;;;;;13.10;10.47;;;9.50;70.30;;;10.03;56.31;96218.69;5045104;28;20049;-51
2022/04/23 04:25:37;;;;;;;13.07;10.30;;;9.40;70.40;;;9.99;56.14;96215.59;5044323;28;20232;-55
2022/04/23 04:28:05;;;;;;;12.50;10.43;;;9.40;70.70;;;9.98;56.42;96226.41;5044178;28;20052;-53
2022/04/23 04:31:47;;;;;;;12.83;9.40;;;9.40;71.00;;;9.95;56.31;96219.66;5044980;28;20053;-54
2022/04/23 04:33:22;;;;;;;11.93;9.53;;;9.40;71.10;;;9.91;56.50;96209.63;5045044;28;20059;-52
2022/04/23 04:35:50;;;;;;;11.13;8.87;;;9.30;71.40;;;9.89;56.42;96215.13;5044199;28;20053;-53
2022/04/23 04:38:22;;;;;;;15.37;10.47;;;9.30;71.80;;;9.86;56.76;96220.81;5044673;28;20059;-51
2022/04/23 04:40:51;;;;;;;14.83;10.90;;;9.30;72.10;;;9.83;56.75;96221.19;5044188;28;20079;-55
2022/04/23 04:43:19;;;;;;;15.47;10.93;;;9.20;72.20;;;9.82;56.88;96225.66;5044068;28;20045;-54
2022/04/23 04:45:47;;;;;;;14.17;9.20;;;9.20;72.40;;;9.83;57.06;96229.19;5043817;28;20456;-54
2022/04/23 04:48:15;;;;;;;12.13;9.23;;;9.30;72.30;;;9.82;57.12;96238.16;5043141;28;20041;-54
2022/04/23 04:50:43;;;;;;;14.87;10.97;;;9.30;72.60;;;9.81;57.42;96236.53;5044209;28;20251;-52
2022/04/23 04:53:10;;;;;;;12.10;9.70;;;9.30;72.80;;;9.80;57.75;96241.00;5044348;28;20049;-52
2022/04/23 04:55:40;;;;;;;14.80;11.40;;;9.30;73.30;;;9.82;57.87;96238.97;5042516;28;20049;-55
2022/04/23 04:58:07;;;;;;;13.83;10.07;;;9.30;73.80;;;9.86;58.25;96242.06;5043970;28;20059;-52
2022/04/23 05:00:35;;;;;;;11.10;9.23;;;9.40;73.80;;;9.91;58.00;96239.66;5044671;28;20045;-54
2022/04/23 05:03:03;;;;;;;14.50;10.73;;;9.50;74.00;;;9.94;58.17;96241.13;5043849;28;20049;-52
2022/04/23 05:05:31;;;;;;;15.67;9.57;;;9.50;74.20;;;9.95;58.17;96240.94;5043359;28;20045;-54
2022/04/23 05:07:59;;;;;;;13.03;10.10;;;9.50;74.30;;;9.99;58.35;96241.38;5044320;28;20271;-53
2022/04/23 05:10:27;;;;;;;12.07;9.90;;;9.50;74.10;;;10.03;58.45;96238.13;5043852;28;20344;-54
2022/04/23 05:12:55;;;;;;;13.03;10.20;;;9.60;74.20;;;10.07;58.33;96237.75;5042656;28;20045;-54
2022/04/23 05:15:22;;;;;;;12.63;9.67;;;9.60;74.20;;;10.11;58.59;96239.81;5043460;28;20075;-53
2022/04/23 05:17:50;;;;;;;13.27;10.60;;;9.70;74.30;;;10.14;58.46;96239.44;5043431;28;20225;-49
2022/04/23 05:20:18;;;;;;;13.10;9.50;;;9.70;74.20;;;10.19;58.52;96245.00;5043687;28;20037;-51
2022/04/23 05:22:46;;;;;;;13.27;10.07;;;9.80;74.20;;;10.24;58.57;96239.94;5043169;28;20244;-54
2022/04/23 05:25:13;;;;;;;16.83;12.13;;;9.80;74.20;;;10.26;58.88;96253.03;5043526;28;20046;-53
2022/04/23 05:27:41;;;;;;;13.40;9.87;;;9.90;74.40;;;10.31;58.97;96252.47;5042969;28;20071;-50
2022/04/23 05:30:10;;;;;;;15.17;10.50;;;10.00;74.40;;;10.37;58.84;96255.22;5043384;28;20247;-50
2022/04/23 05:32:37;;;;;;;11.27;8.77;;;10.10;74.60;;;10.40;59.36;96259.31;5042847;28;20068;-53
2022/04/23 05:35:11;;;;;;;11.27;9.43;;;10.10;74.70;;;10.44;58.80;96260.56;5043485;28;20049;-51
2022/04/23 05:37:39;;;;;;;14.23;10.53;;;10.10;74.50;;;10.50;59.01;96265.09;5042849;28;20055;-52
2022/04/23 05:40:08;;;;;;;14.73;10.23;;;10.20;74.50;;;10.53;59.23;96255.94;5043154;28;20055;-49
2022/04/23 05:42:36;;;;;;;11.13;9.33;;;10.20;74.50;;;10.56;58.97;96260.84;5043259;28;20056;-53
2022/04/23 05:45:04;;;;;;;13.63;10.93;;;10.30;74.20;;;10.62;59.29;96273.38;5044515;28;20059;-54
2022/04/23 05:47:32;;;;;;;13.83;10.37;;;10.30;74.10;;;10.66;58.97;96265.81;5041641;28;20059;-55
2022/04/23 05:50:00;;;;;;;12.33;9.77;;;10.40;74.10;;;10.69;59.13;96266.25;5042980;28;20057;-54
2022/04/23 05:52:28;;;;;;;12.03;9.03;;;10.40;74.10;;;10.74;59.36;96269.16;5042991;28;20053;-53
2022/04/23 05:54:55;;;;;;;13.17;10.20;;;10.50;73.70;;;10.78;58.85;96273.06;5042958;28;20053;-51
2022/04/23 05:57:23;;;;;;;11.07;9.50;;;10.50;73.70;;;10.81;58.94;96279.84;5042398;28;20054;-53
2022/04/23 05:59:51;;;;;;;14.57;10.93;;;10.50;73.80;;;10.84;59.32;96285.59;5042775;28;20336;-51
2022/04/23 06:02:19;;;;;;;13.20;10.03;;;10.60;73.90;;;10.91;59.27;96279.47;5042664;28;20045;-50
2022/04/23 06:04:49;;;;;;;12.60;9.70;;;10.70;73.70;;;10.94;58.77;96287.91;5042799;28;20224;-51
2022/04/23 06:07:18;;;;;;;13.73;10.00;;;10.70;73.50;;;11.00;59.19;96288.97;5041923;28;20044;-54
2022/04/23 06:09:46;;;;;;;12.27;9.33;;;10.80;73.40;;;11.02;58.86;96290.41;5042710;28;20047;-54
2022/04/23 06:12:14;;;;;;;13.93;10.83;;;10.80;73.20;;;11.08;59.16;96286.13;5042580;28;20051;-55
2022/04/23 06:14:43;;;;;;;14.30;10.30;;;10.90;73.10;;;11.13;59.01;96289.03;5043009;28;20056;-53
2022/04/23 06:17:12;;;;;;;13.85;10.52;;;10.90;72.80;;;11.17;58.56;96290.28;5042168;28;20045;-54
2022/04/23 06:19:42;;;;;;;13.97;9.17;;;10.90;72.80;;;11.19;58.76;96293.56;5042324;28;20054;-53
2022/04/23 06:22:10;;;;;;;13.13;9.07;;;11.00;72.60;;;11.25;58.69;96291.13;5042223;28;20052;-56
2022/04/23 06:24:38;;;;;;;11.82;9.30;;;11.00;72.40;;;11.27;59.02;96295.22;5043099;28;20056;-52
2022/04/23 06:27:06;;;;;;;10.47;9.10;;;11.10;72.40;;;11.31;58.63;96299.16;5042761;28;20052;-56
2022/04/23 06:29:41;;;;;;;12.13;8.85;;;11.10;72.30;;;11.36;58.67;96301.19;5042403;28;20051;-56
2022/04/23 06:32:10;;;;;;;11.77;8.67;;;11.10;72.30;;;11.36;58.63;96299.38;5042906;28;20060;-58
2022/04/23 06:34:39;;;;;;;10.27;8.37;;;11.20;71.70;;;11.42;58.86;96298.59;5042751;28;20053;-54
2022/04/23 06:37:08;;;;;;;9.40;7.80;;;11.30;71.50;;;11.46;58.65;96299.00;5042021;28;20056;-57
2022/04/23 06:39:36;;;;;;;10.53;8.50;;;11.30;71.10;;;11.48;58.14;96294.28;5042172;28;20495;-55
2022/04/23 06:42:04;;;;;;;10.23;7.72;;;11.40;70.60;;;11.51;58.63;96304.53;5042059;28;20053;-58
2022/04/23 06:44:38;;;;;;;9.65;7.30;;;11.50;70.50;;;11.59;58.01;96299.06;5041255;28;20046;-55
2022/04/23 06:47:06;;;;;;;9.13;7.57;;;11.50;70.40;;;11.67;57.84;96297.22;5040640;28;20335;-56
2022/04/23 06:49:34;;;;;;;10.77;8.40;;;11.60;70.30;;;11.68;58.06;96301.53;5042750;28;20063;-54
2022/04/23 06:52:02;;;;;;;8.43;6.93;;;11.60;69.80;;;11.73;58.14;96299.91;5042171;28;20049;-55
2022/04/23 06:54:30;;;;;;;11.55;7.93;;;11.70;69.40;;;11.79;57.70;96298.28;5042213;28;20268;-57
2022/04/23 06:56:58;;;;;;;8.73;6.97;;;11.70;69.20;;;11.81;57.51;96304.25;5041717;28;20075;-56
2022/04/23 06:59:26;;;;;;;11.80;7.82;;;11.80;68.70;;;11.80;57.50;96310.56;5042030;28;20076;-55
2022/04/23 07:01:54;;;;;;;8.27;6.93;;;11.90;68.40;;;11.88;57.63;96302.38;5041797;28;20047;-54
2022/04/23 07:04:25;;;;;;;7.83;6.90;;;11.90;68.30;;;11.96;57.43;96304.06;5042582;28;20053;-55
2022/04/23 07:06:53;;;;;;;7.80;6.95;;;12.00;68.20;;;12.02;56.95;96303.28;5041538;28;20045;-56
2022/04/23 07:09:21;;;;;;;9.30;7.40;;;12.00;68.00;;;12.07;57.13;96308.00;5041720;28;20247;-57
2022/04/23 07:11:48;;;;;;;8.70;6.75;;;12.10;67.90;;;12.08;56.59;96306.97;5042032;28;20052;-52
2022/04/23 07:14:16;;;;;;;7.70;6.22;;;12.10;67.10;;;12.02;56.77;96308.63;5041880;28;20046;-52
2022/04/23 07:16:44;;;;;;;7.93;6.05;;;12.20;66.30;;;11.99;56.62;96309.00;5041909;28;20335;-56
2022/04/23 07:19:12;;;;;;;9.07;6.68;;;12.20;66.10;;;11.97;56.91;96309.22;5043685;28;20056;-52
2022/04/23 07:21:40;;;;;;;7.65;6.03;;;12.20;66.10;;;12.01;56.50;96312.31;5045762;28;20336;-57
2022/04/23 07:24:10;;;;;;;8.75;6.47;;;12.30;66.30;;;12.10;56.55;96312.94;5045504;28;20053;-52
2022/04/23 07:26:40;;;;;;;7.85;6.50;;;12.30;66.30;;;12.14;56.87;96322.19;5045358;28;20243;-55
2022/04/23 07:29:10;;;;;;;8.00;5.68;;;12.30;66.30;;;12.21;56.83;96318.50;5045663;28;20053;-56
2022/04/23 07:31:38;;;;;;;7.38;5.85;;;12.30;66.40;;;12.29;56.18;96311.28;5045752;28;20055;-55
2022/04/23 07:39:39;;;;;;;8.02;5.45;;;12.40;65.50;;;12.33;55.99;96304.53;5045542;28;20049;-53
2022/04/23 07:42:08;;;;;;;7.03;5.13;;;12.50;65.30;;;12.41;55.62;96315.81;5045601;28;20336;-55
2022/04/23 07:44:36;;;;;;;5.95;4.93;;;12.50;65.50;;;12.39;56.04;96312.53;5045294;28;20088;-53
2022/04/23 07:47:05;;;;;;;6.80;5.57;;;12.60;65.10;;;12.47;55.49;96316.84;5043674;28;20045;-54
2022/04/23 07:49:33;;;;;;;8.25;6.05;;;12.60;64.80;;;12.57;55.43;96316.44;5044864;28;20045;-57
2022/04/23 07:52:02;;;;;;;7.85;5.85;;;12.60;64.80;;;12.47;55.29;96303.50;5045287;28;20046;-56
2022/04/23 07:54:30;;;;;;;6.57;5.80;;;12.70;64.10;;;12.60;55.77;96313.34;5045127;28;20056;-53
2022/04/23 07:56:58;;;;;;;7.10;6.07;;;12.80;64.50;;;12.67;55.40;96310.69;5044705;28;20052;-56
2022/04/23 07:59:26;;;;;;;7.32;5.90;;;12.80;64.30;;;12.76;55.54;96322.81;5045970;28;20053;-55
2022/04/23 08:01:56;;;;;;;6.65;4.97;;;12.90;64.10;;;12.76;55.04;96314.78;5045105;28;20323;-56
2022/04/23 08:04:24;;;;;;;6.68;5.57;;;13.00;63.20;;;12.71;54.79;96310.06;5045039;28;20098;-55
2022/04/23 08:06:52;;;;;;;6.75;5.50;;;13.00;62.70;;;12.83;54.80;96312.09;5044561;28;20049;-57
2022/04/23 08:09:20;;;;;;;6.70;5.75;;;13.10;63.30;;;12.89;55.12;96308.59;5044819;28;20055;-55
2022/04/23 08:11:47;;;;;;;6.45;4.93;;;13.10;63.40;;;13.02;54.79;96307.75;5044913;28;20049;-56
2022/04/23 08:14:16;;;;;;;9.52;6.10;;;13.20;63.00;;;13.07;54.74;96314.13;5044947;28;20050;-56
2022/04/23 08:16:45;;;;;;;6.45;5.63;;;13.20;63.00;;;13.11;54.68;96307.31;5044289;28;20055;-55
2022/04/23 08:19:13;;;;;;;6.25;5.57;;;13.30;62.90;;;13.23;54.75;96312.03;5045531;28;20053;-56
2022/04/23 08:21:41;;;;;;;6.10;5.07;;;13.40;62.70;;;13.28;54.40;96306.84;5044832;28;20053;-57
2022/04/23 08:24:09;;;;;;;6.63;5.13;;;13.40;62.80;;;13.28;54.08;96312.19;5044359;28;20051;-56
2022/04/23 08:26:37;;;;;;;7.53;5.50;;;13.40;62.10;;;13.32;53.95;96311.59;5044234;28;20052;-56
2022/04/23 08:31:52;;;;;;;6.07;4.53;;;13.50;62.20;;;13.44;53.66;96309.09;5045129;28;20255;-54
2022/04/23 08:34:20;;;;;;;5.78;4.47;;;13.60;61.90;;;13.43;53.57;96303.94;5044212;28;20259;-53
2022/04/23 08:36:50;;;;;;;6.47;5.40;;;13.60;61.40;;;13.46;53.29;96308.88;5044013;28;20049;-55
2022/04/23 08:39:18;;;;;;;6.28;4.70;;;13.60;61.20;;;13.48;53.72;96309.50;5044286;28;20053;-54
2022/04/23 08:41:46;;;;;;;5.60;4.72;;;13.60;61.60;;;13.54;53.30;96305.97;5044209;28;20053;-53
2022/04/23 08:44:14;;;;;;;5.57;4.95;;;13.70;60.70;;;13.57;53.34;96308.19;5043274;28;20045;-55
2022/04/23 08:46:42;;;;;;;5.80;4.75;;;13.70;61.20;;;13.64;53.16;96305.50;5043031;28;20053;-52
2022/04/23 08:49:16;;;;;;;6.93;5.40;;;13.80;61.10;;;13.66;52.81;96311.47;5044550;28;20050;-57
2022/04/23 08:52:01;;;;;;;5.40;4.60;;;13.90;60.40;;;13.72;52.98;96311.41;5044687;28;20049;-56
2022/04/23 08:54:29;;;;;;;6.15;5.05;;;13.90;60.10;;;13.71;52.38;96301.78;5042648;28;20057;-58
2022/04/23 08:56:57;;;;;;;6.18;4.78;;;14.00;59.30;;;13.71;52.46;96296.41;5043850;28;20059;-56
2022/04/23 08:59:26;;;;;;;6.30;5.25;;;14.00;59.40;;;13.77;52.31;96300.09;5042376;28;20059;-55
2022/04/23 09:01:56;;;;;;;5.78;4.45;;;14.10;59.30;;;13.83;52.45;96295.75;5043699;28;20045;-57
2022/04/23 09:04:24;;;;;;;5.40;4.35;;;14.10;59.20;;;13.93;52.41;96296.09;5044250;28;20075;-56
2022/04/23 09:06:59;;;;;;;7.07;5.00;;;14.20;59.10;;;14.04;52.20;96298.09;5043503;28;20041;-55
2022/04/23 09:09:27;;;;;;;6.22;5.18;;;14.30;59.10;;;14.08;52.11;96293.13;5043847;28;20059;-57
2022/04/23 09:11:59;;;;;;;7.55;4.85;;;14.40;58.90;;;14.09;51.78;96300.91;5044038;28;20049;-57
2022/04/23 09:14:34;;;;;;;5.60;4.65;;;14.40;58.10;;;14.21;51.98;96298.38;5044668;28;20049;-54
2022/04/23 09:25:44;;;;;;;7.75;5.35;;;14.60;57.70;;;14.42;51.28;96297.19;5043648;28;20259;-56
2022/04/23 09:28:29;;;;;;;6.97;4.75;;;14.70;57.70;;;14.50;50.56;96296.09;5043283;28;20038;-56
2022/04/23 09:30:59;;;;;;;6.40;4.93;;;14.70;56.60;;;14.52;50.77;96291.34;5042654;28;20045;-55
2022/04/23 09:33:43;;;;;;;7.95;4.95;;;14.70;57.50;;;14.53;49.65;96292.97;5043094;28;20049;-56
2022/04/23 09:36:12;;;;;;;6.53;5.90;;;14.70;56.10;;;14.55;50.70;96296.25;5043100;28;20234;-55
2022/04/23 09:38:40;;;;;;;6.22;4.90;;;14.70;57.40;;;14.59;50.51;96294.00;5043014;28;20241;-55
2022/04/23 09:41:19;;;;;;;6.78;5.35;;;14.70;57.30;;;14.61;50.69;96300.75;5042598;28;20056;-55
2022/04/23 09:44:05;;;;;;;6.75;5.10;;;14.70;57.70;;;14.66;50.71;96295.59;5043111;28;20041;-56
2022/04/23 09:46:49;;;;;;;8.63;5.40;;;14.80;57.40;;;14.68;50.24;96298.84;5041990;28;20056;-57
2022/04/23 09:49:31;;;;;;;5.93;4.85;;;14.80;56.10;;;14.69;50.00;96297.00;5042992;28;20052;-57
2022/04/23 09:52:07;;;;;;;5.55;4.95;;;14.80;57.10;;;14.70;50.00;96294.09;5042803;28;20049;-55
2022/04/23 09:54:37;;;;;;;8.02;4.85;;;14.70;56.60;;;14.67;49.83;96299.88;5043208;28;20053;-55
2022/04/23 09:57:05;;;;;;;6.55;4.72;;;14.70;56.70;;;14.50;49.63;96299.59;5041344;28;20055;-57
2022/04/23 09:59:33;;;;;;;6.47;4.78;;;14.60;56.10;;;14.51;49.84;96292.38;5042720;28;20083;-55
2022/04/23 10:02:03;;;;;;;6.97;5.45;;;14.60;56.80;;;14.54;49.84;96303.47;5042770;28;20037;-56
2022/04/23 10:04:33;;;;;;;6.50;5.28;;;14.60;56.50;;;14.59;50.03;96304.72;5042879;28;20246;-57
2022/04/23 10:07:03;;;;;;;6.35;5.28;;;14.60;56.70;;;14.58;49.45;96303.91;5041292;28;20054;-52
2022/04/23 10:09:39;;;;;;;5.28;4.05;;;14.70;56.20;;;14.58;49.41;96301.22;5043058;28;20056;-57
2022/04/23 10:12:12;;;;;;;6.05;4.80;;;14.80;55.50;;;14.63;49.57;96295.19;5042662;28;20243;-57
2022/04/23 10:14:48;;;;;;;5.30;3.72;;;14.80;56.00;;;14.64;49.58;96289.63;5042632;28;20051;-56
2022/04/23 10:17:20;;;;;;;5.90;4.07;;;14.80;55.80;;;14.67;49.49;96299.88;5041947;28;20042;-57
2022/04/23 10:19:48;;;;;;;5.35;4.45;;;14.90;55.60;;;14.68;49.19;96296.19;5041146;28;20055;-57
2022/04/23 10:22:31;;;;;;;5.80;4.00;;;14.90;55.60;;;14.74;49.10;96294.47;5042086;28;20051;-56
2022/04/23 10:26:14;;;;;;;5.43;4.35;;;15.00;55.40;;;14.79;49.50;96299.97;5042539;28;20041;-54
2022/04/23 10:28:44;;;;;;;4.68;3.78;;;15.00;54.80;;;14.92;49.30;96291.00;5001348;28;20050;-55
2022/04/23 10:31:17;;;;;;;4.38;3.80;;;15.10;55.50;;;14.97;48.83;96299.22;4984914;28;20050;-53
2022/04/23 10:33:51;;;;;;;5.87;4.33;;;15.20;54.00;;;14.98;48.32;96295.47;5027271;28;20068;-57
2022/04/23 10:36:22;;;;;;;4.80;3.90;;;15.30;54.70;;;15.08;49.01;96300.31;5041830;28;20063;-55
2022/04/23 10:39:12;;;;;;;5.25;4.10;;;15.30;55.00;;;15.19;48.82;96298.78;5042239;28;20061;-56